sensor_id;sensor_type;location;lat;lon;timestamp;P1;durP1;ratioP1;P2;durP2;ratioP2
19049;SDS011;9657;45.940;12.840;2022-12-29T00:01:38;18.87;;;13.37;;
19049;SDS011;9657;45.940;12.840;2022-12-29T00:04:05;17.93;;;12.63;;
19049;SDS011;9657;45.940;12.840;2022-12-29T00:06:34;22.77;;;14.23;;
19049;SDS011;9657;45.940;12.840;2022-12-29T00:09:01;16.10;;;12.57;;
19049;SDS011;9657;45.940;12.840;2022-12-29T00:11:29;16.63;;;12.97;;
19049;SDS011;9657;45.940;12.840;2022-12-29T00:13:56;16.53;;;12.70;;
19049;SDS011;9657;45.940;12.840;2022-12-29T00:16:41;16.70;;;12.77;;
19049;SDS011;9657;45.940;12.840;2022-12-29T00:19:09;15.47;;;12.80;;
19049;SDS011;9657;45.940;12.840;2022-12-29T00:21:51;17.87;;;13.77;;
19049;SDS011;9657;45.940;12.840;2022-12-29T00:24:35;16.80;;;13.60;;
19049;SDS011;9657;45.940;12.840;2022-12-29T00:27:21;17.17;;;12.97;;
19049;SDS011;9657;45.940;12.840;2022-12-29T00:30:07;17.23;;;12.63;;
19049;SDS011;9657;45.940;12.840;2022-12-29T00:32:53;18.63;;;13.57;;
19049;SDS011;9657;45.940;12.840;2022-12-29T00:35:38;18.87;;;13.83;;
19049;SDS011;9657;45.940;12.840;2022-12-29T00:38:09;16.87;;;13.53;;
19049;SDS011;9657;45.940;12.840;2022-12-29T00:40:55;20.47;;;13.97;;
19049;SDS011;9657;45.940;12.840;2022-12-29T00:43:41;18.20;;;14.07;;
19049;SDS011;9657;45.940;12.840;2022-12-29T00:46:25;17.73;;;13.70;;
19049;SDS011;9657;45.940;12.840;2022-12-29T00:48:52;18.40;;;13.33;;
19049;SDS011;9657;45.940;12.840;2022-12-29T00:51:37;18.47;;;13.57;;
19049;SDS011;9657;45.940;12.840;2022-12-29T00:54:04;19.80;;;14.00;;
19049;SDS011;9657;45.940;12.840;2022-12-29T00:56:31;16.77;;;13.43;;
19049;SDS011;9657;45.940;12.840;2022-12-29T00:59:01;18.00;;;14.30;;
19049;SDS011;9657;45.940;12.840;2022-12-29T01:01:28;17.33;;;13.37;;
19049;SDS011;9657;45.940;12.840;2022-12-29T01:03:55;17.70;;;13.50;;
19049;SDS011;9657;45.940;12.840;2022-12-29T01:06:22;16.23;;;13.40;;
19049;SDS011;9657;45.940;12.840;2022-12-29T01:08:50;17.23;;;13.50;;
19049;SDS011;9657;45.940;12.840;2022-12-29T01:11:37;17.00;;;13.70;;
19049;SDS011;9657;45.940;12.840;2022-12-29T01:14:05;18.50;;;13.27;;
19049;SDS011;9657;45.940;12.840;2022-12-29T01:16:33;19.30;;;13.23;;
19049;SDS011;9657;45.940;12.840;2022-12-29T01:19:01;16.77;;;13.93;;
19049;SDS011;9657;45.940;12.840;2022-12-29T01:21:28;17.07;;;14.20;;
19049;SDS011;9657;45.940;12.840;2022-12-29T01:23:56;17.20;;;13.60;;
19049;SDS011;9657;45.940;12.840;2022-12-29T01:26:23;19.33;;;13.30;;
19049;SDS011;9657;45.940;12.840;2022-12-29T01:28:50;19.60;;;14.23;;
19049;SDS011;9657;45.940;12.840;2022-12-29T01:31:18;18.27;;;13.63;;
19049;SDS011;9657;45.940;12.840;2022-12-29T01:33:45;16.67;;;13.07;;
19049;SDS011;9657;45.940;12.840;2022-12-29T01:36:13;18.60;;;14.13;;
19049;SDS011;9657;45.940;12.840;2022-12-29T01:38:41;16.50;;;13.17;;
19049;SDS011;9657;45.940;12.840;2022-12-29T01:41:10;17.47;;;12.77;;
19049;SDS011;9657;45.940;12.840;2022-12-29T01:43:39;17.30;;;13.77;;
19049;SDS011;9657;45.940;12.840;2022-12-29T01:46:07;18.77;;;13.60;;
19049;SDS011;9657;45.940;12.840;2022-12-29T01:48:46;19.73;;;13.67;;
19049;SDS011;9657;45.940;12.840;2022-12-29T01:51:15;15.20;;;12.70;;
19049;SDS011;9657;45.940;12.840;2022-12-29T01:53:43;18.77;;;13.97;;
19049;SDS011;9657;45.940;12.840;2022-12-29T01:56:12;18.47;;;13.80;;
19049;SDS011;9657;45.940;12.840;2022-12-29T01:58:43;16.77;;;13.60;;
19049;SDS011;9657;45.940;12.840;2022-12-29T02:03:50;17.37;;;13.80;;
19049;SDS011;9657;45.940;12.840;2022-12-29T02:06:18;17.10;;;13.27;;
19049;SDS011;9657;45.940;12.840;2022-12-29T02:08:49;17.70;;;13.77;;
19049;SDS011;9657;45.940;12.840;2022-12-29T02:11:18;17.13;;;13.50;;
19049;SDS011;9657;45.940;12.840;2022-12-29T02:13:47;16.67;;;12.57;;
19049;SDS011;9657;45.940;12.840;2022-12-29T02:16:18;16.13;;;12.77;;
19049;SDS011;9657;45.940;12.840;2022-12-29T02:19:09;16.80;;;12.97;;
19049;SDS011;9657;45.940;12.840;2022-12-29T02:22:05;20.10;;;13.77;;
19049;SDS011;9657;45.940;12.840;2022-12-29T02:27:55;16.13;;;13.07;;
19049;SDS011;9657;45.940;12.840;2022-12-29T02:33:21;16.80;;;13.23;;
19049;SDS011;9657;45.940;12.840;2022-12-29T02:35:59;17.40;;;13.67;;
19049;SDS011;9657;45.940;12.840;2022-12-29T02:38:37;15.83;;;12.73;;
19049;SDS011;9657;45.940;12.840;2022-12-29T02:41:16;16.03;;;12.37;;
19049;SDS011;9657;45.940;12.840;2022-12-29T02:43:48;16.60;;;13.20;;
19049;SDS011;9657;45.940;12.840;2022-12-29T02:46:19;15.00;;;12.00;;
19049;SDS011;9657;45.940;12.840;2022-12-29T02:48:54;15.57;;;12.83;;
19049;SDS011;9657;45.940;12.840;2022-12-29T02:51:31;16.93;;;13.07;;
19049;SDS011;9657;45.940;12.840;2022-12-29T02:54:00;15.57;;;12.40;;
19049;SDS011;9657;45.940;12.840;2022-12-29T02:56:45;17.40;;;13.33;;
19049;SDS011;9657;45.940;12.840;2022-12-29T02:59:12;16.00;;;11.83;;
19049;SDS011;9657;45.940;12.840;2022-12-29T03:01:43;14.37;;;11.40;;
19049;SDS011;9657;45.940;12.840;2022-12-29T03:04:36;15.60;;;12.30;;
19049;SDS011;9657;45.940;12.840;2022-12-29T03:07:15;16.23;;;12.27;;
19049;SDS011;9657;45.940;12.840;2022-12-29T03:09:50;17.27;;;12.10;;
19049;SDS011;9657;45.940;12.840;2022-12-29T03:12:26;15.37;;;11.07;;
19049;SDS011;9657;45.940;12.840;2022-12-29T03:15:17;15.53;;;12.07;;
19049;SDS011;9657;45.940;12.840;2022-12-29T03:18:09;15.10;;;12.33;;
19049;SDS011;9657;45.940;12.840;2022-12-29T03:20:41;14.17;;;11.70;;
19049;SDS011;9657;45.940;12.840;2022-12-29T03:23:14;15.73;;;12.30;;
19049;SDS011;9657;45.940;12.840;2022-12-29T03:25:45;14.93;;;11.70;;
19049;SDS011;9657;45.940;12.840;2022-12-29T03:28:17;14.07;;;11.30;;
19049;SDS011;9657;45.940;12.840;2022-12-29T03:30:46;16.70;;;12.87;;
19049;SDS011;9657;45.940;12.840;2022-12-29T03:33:15;16.73;;;12.40;;
19049;SDS011;9657;45.940;12.840;2022-12-29T03:35:46;15.23;;;12.13;;
19049;SDS011;9657;45.940;12.840;2022-12-29T03:38:16;13.17;;;11.27;;
19049;SDS011;9657;45.940;12.840;2022-12-29T03:40:48;15.80;;;12.47;;
19049;SDS011;9657;45.940;12.840;2022-12-29T03:43:17;12.97;;;10.60;;
19049;SDS011;9657;45.940;12.840;2022-12-29T03:45:45;16.17;;;12.43;;
19049;SDS011;9657;45.940;12.840;2022-12-29T03:48:12;16.77;;;12.20;;
19049;SDS011;9657;45.940;12.840;2022-12-29T03:50:40;19.90;;;12.40;;
19049;SDS011;9657;45.940;12.840;2022-12-29T03:53:07;15.80;;;12.17;;
19049;SDS011;9657;45.940;12.840;2022-12-29T03:55:34;14.53;;;12.00;;
19049;SDS011;9657;45.940;12.840;2022-12-29T03:58:01;15.23;;;11.87;;
19049;SDS011;9657;45.940;12.840;2022-12-29T04:00:28;16.20;;;11.23;;
19049;SDS011;9657;45.940;12.840;2022-12-29T04:02:55;17.47;;;11.43;;
19049;SDS011;9657;45.940;12.840;2022-12-29T04:05:22;14.13;;;11.80;;
19049;SDS011;9657;45.940;12.840;2022-12-29T04:07:51;14.97;;;12.07;;
19049;SDS011;9657;45.940;12.840;2022-12-29T04:10:18;14.93;;;11.80;;
19049;SDS011;9657;45.940;12.840;2022-12-29T04:12:45;14.67;;;11.70;;
19049;SDS011;9657;45.940;12.840;2022-12-29T04:15:12;15.00;;;12.37;;
19049;SDS011;9657;45.940;12.840;2022-12-29T04:17:39;13.27;;;10.73;;
19049;SDS011;9657;45.940;12.840;2022-12-29T04:20:06;15.83;;;11.83;;
19049;SDS011;9657;45.940;12.840;2022-12-29T04:22:58;15.07;;;12.27;;
19049;SDS011;9657;45.940;12.840;2022-12-29T04:25:26;16.20;;;12.20;;
19049;SDS011;9657;45.940;12.840;2022-12-29T04:27:53;14.03;;;11.70;;
19049;SDS011;9657;45.940;12.840;2022-12-29T04:30:20;15.37;;;10.67;;
19049;SDS011;9657;45.940;12.840;2022-12-29T04:32:47;18.70;;;13.03;;
19049;SDS011;9657;45.940;12.840;2022-12-29T04:35:14;14.60;;;10.60;;
19049;SDS011;9657;45.940;12.840;2022-12-29T04:37:41;13.93;;;11.10;;
19049;SDS011;9657;45.940;12.840;2022-12-29T04:40:11;13.73;;;11.20;;
19049;SDS011;9657;45.940;12.840;2022-12-29T04:42:38;14.33;;;11.47;;
19049;SDS011;9657;45.940;12.840;2022-12-29T04:45:05;13.13;;;10.50;;
19049;SDS011;9657;45.940;12.840;2022-12-29T04:47:33;15.57;;;12.37;;
19049;SDS011;9657;45.940;12.840;2022-12-29T04:50:00;15.07;;;11.53;;
19049;SDS011;9657;45.940;12.840;2022-12-29T04:52:27;15.17;;;12.13;;
19049;SDS011;9657;45.940;12.840;2022-12-29T04:54:54;13.73;;;11.50;;
19049;SDS011;9657;45.940;12.840;2022-12-29T04:57:22;14.43;;;10.87;;
19049;SDS011;9657;45.940;12.840;2022-12-29T04:59:49;13.77;;;10.83;;
19049;SDS011;9657;45.940;12.840;2022-12-29T05:02:17;14.90;;;11.80;;
19049;SDS011;9657;45.940;12.840;2022-12-29T05:04:44;14.07;;;11.57;;
19049;SDS011;9657;45.940;12.840;2022-12-29T05:07:11;15.83;;;11.73;;
19049;SDS011;9657;45.940;12.840;2022-12-29T05:09:38;15.13;;;12.03;;
19049;SDS011;9657;45.940;12.840;2022-12-29T05:12:05;14.33;;;11.83;;
19049;SDS011;9657;45.940;12.840;2022-12-29T05:14:34;16.47;;;12.17;;
19049;SDS011;9657;45.940;12.840;2022-12-29T05:17:01;13.60;;;11.33;;
19049;SDS011;9657;45.940;12.840;2022-12-29T05:19:28;15.83;;;12.43;;
19049;SDS011;9657;45.940;12.840;2022-12-29T05:21:55;16.53;;;12.97;;
19049;SDS011;9657;45.940;12.840;2022-12-29T05:24:22;17.13;;;12.37;;
19049;SDS011;9657;45.940;12.840;2022-12-29T05:26:49;15.53;;;12.00;;
19049;SDS011;9657;45.940;12.840;2022-12-29T05:29:16;15.43;;;11.90;;
19049;SDS011;9657;45.940;12.840;2022-12-29T05:31:44;14.00;;;11.30;;
19049;SDS011;9657;45.940;12.840;2022-12-29T05:34:11;15.93;;;11.43;;
19049;SDS011;9657;45.940;12.840;2022-12-29T05:36:38;15.20;;;11.60;;
19049;SDS011;9657;45.940;12.840;2022-12-29T05:39:06;12.83;;;11.47;;
19049;SDS011;9657;45.940;12.840;2022-12-29T05:41:33;14.87;;;11.67;;
19049;SDS011;9657;45.940;12.840;2022-12-29T05:44:00;16.43;;;11.93;;
19049;SDS011;9657;45.940;12.840;2022-12-29T05:46:27;16.20;;;12.90;;
19049;SDS011;9657;45.940;12.840;2022-12-29T05:48:55;16.50;;;12.13;;
19049;SDS011;9657;45.940;12.840;2022-12-29T05:51:22;16.73;;;12.23;;
19049;SDS011;9657;45.940;12.840;2022-12-29T05:53:50;16.37;;;12.10;;
19049;SDS011;9657;45.940;12.840;2022-12-29T05:56:17;16.20;;;11.23;;
19049;SDS011;9657;45.940;12.840;2022-12-29T05:58:44;13.67;;;11.77;;
19049;SDS011;9657;45.940;12.840;2022-12-29T06:01:11;13.53;;;11.07;;
19049;SDS011;9657;45.940;12.840;2022-12-29T06:03:38;15.77;;;11.83;;
19049;SDS011;9657;45.940;12.840;2022-12-29T06:06:06;16.50;;;12.57;;
19049;SDS011;9657;45.940;12.840;2022-12-29T06:08:33;14.87;;;11.27;;
19049;SDS011;9657;45.940;12.840;2022-12-29T06:11:00;14.50;;;11.67;;
19049;SDS011;9657;45.940;12.840;2022-12-29T06:13:27;14.80;;;12.20;;
19049;SDS011;9657;45.940;12.840;2022-12-29T06:15:54;17.20;;;11.77;;
19049;SDS011;9657;45.940;12.840;2022-12-29T06:18:21;17.20;;;12.30;;
19049;SDS011;9657;45.940;12.840;2022-12-29T06:20:48;14.77;;;11.20;;
19049;SDS011;9657;45.940;12.840;2022-12-29T06:23:17;16.03;;;12.03;;
19049;SDS011;9657;45.940;12.840;2022-12-29T06:25:44;13.60;;;12.07;;
19049;SDS011;9657;45.940;12.840;2022-12-29T06:28:13;16.43;;;12.00;;
19049;SDS011;9657;45.940;12.840;2022-12-29T06:30:42;16.40;;;12.87;;
19049;SDS011;9657;45.940;12.840;2022-12-29T06:33:10;15.80;;;11.57;;
19049;SDS011;9657;45.940;12.840;2022-12-29T06:35:38;15.70;;;11.53;;
19049;SDS011;9657;45.940;12.840;2022-12-29T06:38:05;13.93;;;11.60;;
19049;SDS011;9657;45.940;12.840;2022-12-29T06:40:33;15.67;;;11.23;;
19049;SDS011;9657;45.940;12.840;2022-12-29T06:43:00;15.60;;;11.67;;
19049;SDS011;9657;45.940;12.840;2022-12-29T06:45:27;14.97;;;11.57;;
19049;SDS011;9657;45.940;12.840;2022-12-29T06:47:54;15.00;;;11.73;;
19049;SDS011;9657;45.940;12.840;2022-12-29T06:50:21;15.33;;;10.97;;
19049;SDS011;9657;45.940;12.840;2022-12-29T06:52:48;17.03;;;12.73;;
19049;SDS011;9657;45.940;12.840;2022-12-29T06:55:15;13.10;;;10.87;;
19049;SDS011;9657;45.940;12.840;2022-12-29T06:57:44;15.37;;;11.63;;
19049;SDS011;9657;45.940;12.840;2022-12-29T07:00:11;15.43;;;11.27;;
19049;SDS011;9657;45.940;12.840;2022-12-29T07:02:39;16.37;;;11.73;;
19049;SDS011;9657;45.940;12.840;2022-12-29T07:05:06;16.93;;;12.17;;
19049;SDS011;9657;45.940;12.840;2022-12-29T07:07:34;14.43;;;11.83;;
19049;SDS011;9657;45.940;12.840;2022-12-29T07:10:01;16.13;;;11.60;;
19049;SDS011;9657;45.940;12.840;2022-12-29T07:12:28;15.00;;;11.60;;
19049;SDS011;9657;45.940;12.840;2022-12-29T07:14:57;16.90;;;11.97;;
19049;SDS011;9657;45.940;12.840;2022-12-29T07:17:24;14.17;;;11.60;;
19049;SDS011;9657;45.940;12.840;2022-12-29T07:19:51;14.73;;;11.37;;
19049;SDS011;9657;45.940;12.840;2022-12-29T07:22:18;15.53;;;12.13;;
19049;SDS011;9657;45.940;12.840;2022-12-29T07:24:45;17.53;;;11.80;;
19049;SDS011;9657;45.940;12.840;2022-12-29T07:27:12;15.67;;;12.43;;
19049;SDS011;9657;45.940;12.840;2022-12-29T07:29:39;16.10;;;11.67;;
19049;SDS011;9657;45.940;12.840;2022-12-29T07:32:07;15.67;;;11.73;;
19049;SDS011;9657;45.940;12.840;2022-12-29T07:34:34;14.17;;;11.07;;
19049;SDS011;9657;45.940;12.840;2022-12-29T07:37:01;13.30;;;11.07;;
19049;SDS011;9657;45.940;12.840;2022-12-29T07:39:28;15.77;;;11.20;;
19049;SDS011;9657;45.940;12.840;2022-12-29T07:41:55;14.53;;;10.90;;
19049;SDS011;9657;45.940;12.840;2022-12-29T07:44:22;14.60;;;11.80;;
19049;SDS011;9657;45.940;12.840;2022-12-29T07:46:49;18.57;;;12.30;;
19049;SDS011;9657;45.940;12.840;2022-12-29T07:49:18;16.93;;;12.27;;
19049;SDS011;9657;45.940;12.840;2022-12-29T07:51:45;15.43;;;11.43;;
19049;SDS011;9657;45.940;12.840;2022-12-29T07:54:12;16.03;;;11.63;;
19049;SDS011;9657;45.940;12.840;2022-12-29T07:56:39;15.30;;;11.20;;
19049;SDS011;9657;45.940;12.840;2022-12-29T07:59:06;14.97;;;11.10;;
19049;SDS011;9657;45.940;12.840;2022-12-29T08:01:33;16.63;;;11.53;;
19049;SDS011;9657;45.940;12.840;2022-12-29T08:04:00;14.50;;;11.40;;
19049;SDS011;9657;45.940;12.840;2022-12-29T08:06:29;16.33;;;12.07;;
19049;SDS011;9657;45.940;12.840;2022-12-29T08:08:56;14.93;;;11.33;;
19049;SDS011;9657;45.940;12.840;2022-12-29T08:11:23;15.67;;;11.00;;
19049;SDS011;9657;45.940;12.840;2022-12-29T08:13:51;15.20;;;11.20;;
19049;SDS011;9657;45.940;12.840;2022-12-29T08:16:18;15.37;;;11.70;;
19049;SDS011;9657;45.940;12.840;2022-12-29T08:18:45;12.30;;;10.67;;
19049;SDS011;9657;45.940;12.840;2022-12-29T08:21:12;12.53;;;11.10;;
19049;SDS011;9657;45.940;12.840;2022-12-29T08:23:41;14.80;;;11.23;;
19049;SDS011;9657;45.940;12.840;2022-12-29T08:26:08;13.83;;;10.30;;
19049;SDS011;9657;45.940;12.840;2022-12-29T08:28:36;12.83;;;9.97;;
19049;SDS011;9657;45.940;12.840;2022-12-29T08:31:03;14.87;;;10.70;;
19049;SDS011;9657;45.940;12.840;2022-12-29T08:33:31;13.40;;;10.63;;
19049;SDS011;9657;45.940;12.840;2022-12-29T08:35:59;16.37;;;11.17;;
19049;SDS011;9657;45.940;12.840;2022-12-29T08:38:26;16.27;;;11.13;;
19049;SDS011;9657;45.940;12.840;2022-12-29T08:40:56;15.60;;;11.20;;
19049;SDS011;9657;45.940;12.840;2022-12-29T08:43:23;18.43;;;13.30;;
19049;SDS011;9657;45.940;12.840;2022-12-29T08:45:51;20.77;;;13.07;;
19049;SDS011;9657;45.940;12.840;2022-12-29T08:48:18;23.03;;;14.20;;
19049;SDS011;9657;45.940;12.840;2022-12-29T08:50:47;18.97;;;12.77;;
19049;SDS011;9657;45.940;12.840;2022-12-29T08:53:15;22.37;;;15.33;;
19049;SDS011;9657;45.940;12.840;2022-12-29T08:55:44;22.40;;;15.27;;
19049;SDS011;9657;45.940;12.840;2022-12-29T08:58:12;23.10;;;15.47;;
19049;SDS011;9657;45.940;12.840;2022-12-29T09:00:39;32.93;;;15.67;;
19049;SDS011;9657;45.940;12.840;2022-12-29T09:03:06;29.03;;;15.50;;
19049;SDS011;9657;45.940;12.840;2022-12-29T09:05:33;39.00;;;18.27;;
19049;SDS011;9657;45.940;12.840;2022-12-29T09:08:00;31.63;;;16.20;;
19049;SDS011;9657;45.940;12.840;2022-12-29T09:10:28;33.80;;;17.30;;
19049;SDS011;9657;45.940;12.840;2022-12-29T09:12:55;21.93;;;14.83;;
19049;SDS011;9657;45.940;12.840;2022-12-29T09:15:23;22.90;;;14.90;;
19049;SDS011;9657;45.940;12.840;2022-12-29T09:17:50;27.07;;;16.07;;
19049;SDS011;9657;45.940;12.840;2022-12-29T09:20:17;28.17;;;15.07;;
19049;SDS011;9657;45.940;12.840;2022-12-29T09:22:45;25.67;;;15.33;;
19049;SDS011;9657;45.940;12.840;2022-12-29T09:25:13;22.47;;;14.57;;
19049;SDS011;9657;45.940;12.840;2022-12-29T09:27:41;23.40;;;14.60;;
19049;SDS011;9657;45.940;12.840;2022-12-29T09:30:09;25.87;;;14.73;;
19049;SDS011;9657;45.940;12.840;2022-12-29T09:32:38;25.53;;;14.73;;
19049;SDS011;9657;45.940;12.840;2022-12-29T09:35:06;25.27;;;13.93;;
19049;SDS011;9657;45.940;12.840;2022-12-29T09:37:33;26.43;;;14.87;;
19049;SDS011;9657;45.940;12.840;2022-12-29T09:40:00;20.43;;;13.97;;
19049;SDS011;9657;45.940;12.840;2022-12-29T09:42:37;25.60;;;14.03;;
19049;SDS011;9657;45.940;12.840;2022-12-29T09:45:10;22.30;;;13.63;;
19049;SDS011;9657;45.940;12.840;2022-12-29T09:47:43;26.10;;;13.93;;
19049;SDS011;9657;45.940;12.840;2022-12-29T09:50:14;20.67;;;13.07;;
19049;SDS011;9657;45.940;12.840;2022-12-29T09:52:50;20.03;;;13.53;;
19049;SDS011;9657;45.940;12.840;2022-12-29T09:55:22;21.47;;;13.00;;
19049;SDS011;9657;45.940;12.840;2022-12-29T09:57:54;18.90;;;13.03;;
19049;SDS011;9657;45.940;12.840;2022-12-29T10:00:27;19.90;;;13.20;;
19049;SDS011;9657;45.940;12.840;2022-12-29T10:03:05;19.37;;;12.67;;
19049;SDS011;9657;45.940;12.840;2022-12-29T10:05:40;21.97;;;14.27;;
19049;SDS011;9657;45.940;12.840;2022-12-29T10:08:22;21.47;;;12.23;;
19049;SDS011;9657;45.940;12.840;2022-12-29T10:11:05;21.20;;;13.17;;
19049;SDS011;9657;45.940;12.840;2022-12-29T10:13:49;21.00;;;12.67;;
19049;SDS011;9657;45.940;12.840;2022-12-29T10:16:31;19.57;;;13.03;;
19049;SDS011;9657;45.940;12.840;2022-12-29T10:19:07;18.07;;;12.77;;
19049;SDS011;9657;45.940;12.840;2022-12-29T10:21:56;17.27;;;12.27;;
19049;SDS011;9657;45.940;12.840;2022-12-29T10:24:31;23.33;;;12.93;;
19049;SDS011;9657;45.940;12.840;2022-12-29T10:27:01;18.07;;;12.27;;
19049;SDS011;9657;45.940;12.840;2022-12-29T10:29:32;23.30;;;12.33;;
19049;SDS011;9657;45.940;12.840;2022-12-29T10:32:03;18.37;;;12.17;;
19049;SDS011;9657;45.940;12.840;2022-12-29T10:34:34;18.60;;;12.20;;
19049;SDS011;9657;45.940;12.840;2022-12-29T10:37:05;17.53;;;12.27;;
19049;SDS011;9657;45.940;12.840;2022-12-29T10:39:43;17.20;;;12.20;;
19049;SDS011;9657;45.940;12.840;2022-12-29T10:42:13;15.97;;;11.83;;
19049;SDS011;9657;45.940;12.840;2022-12-29T10:44:53;18.70;;;12.30;;
19049;SDS011;9657;45.940;12.840;2022-12-29T10:47:21;16.30;;;11.73;;
19049;SDS011;9657;45.940;12.840;2022-12-29T10:49:53;18.70;;;12.30;;
19049;SDS011;9657;45.940;12.840;2022-12-29T10:52:20;18.03;;;12.40;;
19049;SDS011;9657;45.940;12.840;2022-12-29T10:54:49;18.70;;;11.97;;
19049;SDS011;9657;45.940;12.840;2022-12-29T10:57:24;14.53;;;11.63;;
19049;SDS011;9657;45.940;12.840;2022-12-29T10:59:55;19.93;;;11.70;;
19049;SDS011;9657;45.940;12.840;2022-12-29T11:02:25;16.03;;;12.17;;
19049;SDS011;9657;45.940;12.840;2022-12-29T11:05:16;17.73;;;11.83;;
19049;SDS011;9657;45.940;12.840;2022-12-29T11:07:49;16.00;;;11.47;;
19049;SDS011;9657;45.940;12.840;2022-12-29T11:10:19;18.93;;;12.17;;
19049;SDS011;9657;45.940;12.840;2022-12-29T11:12:56;16.33;;;11.47;;
19049;SDS011;9657;45.940;12.840;2022-12-29T11:15:26;14.83;;;11.00;;
19049;SDS011;9657;45.940;12.840;2022-12-29T11:17:53;14.70;;;11.00;;
19049;SDS011;9657;45.940;12.840;2022-12-29T11:20:31;18.10;;;10.67;;
19049;SDS011;9657;45.940;12.840;2022-12-29T11:23:02;15.13;;;10.80;;
19049;SDS011;9657;45.940;12.840;2022-12-29T11:25:32;18.73;;;12.73;;
19049;SDS011;9657;45.940;12.840;2022-12-29T11:27:59;14.40;;;11.10;;
19049;SDS011;9657;45.940;12.840;2022-12-29T11:30:31;15.83;;;11.93;;
19049;SDS011;9657;45.940;12.840;2022-12-29T11:32:58;16.37;;;11.40;;
19049;SDS011;9657;45.940;12.840;2022-12-29T11:35:30;19.03;;;12.20;;
19049;SDS011;9657;45.940;12.840;2022-12-29T11:38:00;17.97;;;11.77;;
19049;SDS011;9657;45.940;12.840;2022-12-29T11:40:29;17.07;;;11.67;;
19049;SDS011;9657;45.940;12.840;2022-12-29T11:42:56;17.70;;;10.70;;
19049;SDS011;9657;45.940;12.840;2022-12-29T11:45:29;18.27;;;11.13;;
19049;SDS011;9657;45.940;12.840;2022-12-29T11:48:00;16.40;;;11.87;;
19049;SDS011;9657;45.940;12.840;2022-12-29T11:50:33;18.17;;;12.10;;
19049;SDS011;9657;45.940;12.840;2022-12-29T11:53:05;14.90;;;12.00;;
19049;SDS011;9657;45.940;12.840;2022-12-29T11:55:40;16.77;;;11.63;;
19049;SDS011;9657;45.940;12.840;2022-12-29T11:58:16;16.87;;;10.97;;
19049;SDS011;9657;45.940;12.840;2022-12-29T12:00:44;14.70;;;10.57;;
19049;SDS011;9657;45.940;12.840;2022-12-29T12:03:15;18.47;;;11.97;;
19049;SDS011;9657;45.940;12.840;2022-12-29T12:05:46;15.73;;;11.93;;
19049;SDS011;9657;45.940;12.840;2022-12-29T12:08:19;16.03;;;11.07;;
19049;SDS011;9657;45.940;12.840;2022-12-29T12:10:58;16.70;;;11.90;;
19049;SDS011;9657;45.940;12.840;2022-12-29T12:13:32;15.27;;;11.03;;
19049;SDS011;9657;45.940;12.840;2022-12-29T12:16:04;15.97;;;11.87;;
19049;SDS011;9657;45.940;12.840;2022-12-29T12:18:37;15.03;;;11.17;;
19049;SDS011;9657;45.940;12.840;2022-12-29T12:21:13;17.73;;;11.60;;
19049;SDS011;9657;45.940;12.840;2022-12-29T12:23:53;15.30;;;11.33;;
19049;SDS011;9657;45.940;12.840;2022-12-29T12:26:33;19.13;;;11.63;;
19049;SDS011;9657;45.940;12.840;2022-12-29T12:29:05;12.50;;;9.93;;
19049;SDS011;9657;45.940;12.840;2022-12-29T12:31:42;15.30;;;11.57;;
19049;SDS011;9657;45.940;12.840;2022-12-29T12:34:14;14.77;;;11.47;;
19049;SDS011;9657;45.940;12.840;2022-12-29T12:36:53;17.90;;;11.43;;
19049;SDS011;9657;45.940;12.840;2022-12-29T12:39:44;17.13;;;11.87;;
19049;SDS011;9657;45.940;12.840;2022-12-29T12:42:24;14.30;;;10.13;;
19049;SDS011;9657;45.940;12.840;2022-12-29T12:45:04;14.57;;;10.90;;
19049;SDS011;9657;45.940;12.840;2022-12-29T12:47:53;16.50;;;11.07;;
19049;SDS011;9657;45.940;12.840;2022-12-29T12:50:40;15.73;;;11.30;;
19049;SDS011;9657;45.940;12.840;2022-12-29T12:53:33;15.93;;;10.00;;
19049;SDS011;9657;45.940;12.840;2022-12-29T12:56:13;14.77;;;10.33;;
19049;SDS011;9657;45.940;12.840;2022-12-29T12:58:53;15.23;;;11.23;;
19049;SDS011;9657;45.940;12.840;2022-12-29T13:01:30;14.47;;;10.20;;
19049;SDS011;9657;45.940;12.840;2022-12-29T13:04:10;14.73;;;10.03;;
19049;SDS011;9657;45.940;12.840;2022-12-29T13:06:54;16.27;;;11.43;;
19049;SDS011;9657;45.940;12.840;2022-12-29T13:09:34;15.37;;;9.83;;
19049;SDS011;9657;45.940;12.840;2022-12-29T13:12:15;14.20;;;10.47;;
19049;SDS011;9657;45.940;12.840;2022-12-29T13:14:52;17.93;;;10.90;;
19049;SDS011;9657;45.940;12.840;2022-12-29T13:17:30;13.83;;;10.30;;
19049;SDS011;9657;45.940;12.840;2022-12-29T13:20:05;14.97;;;11.13;;
19049;SDS011;9657;45.940;12.840;2022-12-29T13:22:47;14.53;;;9.97;;
19049;SDS011;9657;45.940;12.840;2022-12-29T13:25:26;13.57;;;9.87;;
19049;SDS011;9657;45.940;12.840;2022-12-29T13:27:59;16.83;;;11.63;;
19049;SDS011;9657;45.940;12.840;2022-12-29T13:30:33;14.80;;;10.47;;
19049;SDS011;9657;45.940;12.840;2022-12-29T13:33:07;16.83;;;10.57;;
19049;SDS011;9657;45.940;12.840;2022-12-29T13:35:49;14.10;;;10.10;;
19049;SDS011;9657;45.940;12.840;2022-12-29T13:38:22;16.13;;;10.70;;
19049;SDS011;9657;45.940;12.840;2022-12-29T13:40:55;15.60;;;9.90;;
19049;SDS011;9657;45.940;12.840;2022-12-29T13:43:26;14.73;;;9.77;;
19049;SDS011;9657;45.940;12.840;2022-12-29T13:45:57;16.67;;;10.40;;
19049;SDS011;9657;45.940;12.840;2022-12-29T13:48:29;16.07;;;11.10;;
19049;SDS011;9657;45.940;12.840;2022-12-29T13:51:04;14.97;;;11.73;;
19049;SDS011;9657;45.940;12.840;2022-12-29T13:53:35;15.47;;;10.67;;
19049;SDS011;9657;45.940;12.840;2022-12-29T13:56:11;12.97;;;10.50;;
19049;SDS011;9657;45.940;12.840;2022-12-29T13:58:46;14.97;;;11.57;;
19049;SDS011;9657;45.940;12.840;2022-12-29T14:01:21;13.83;;;10.43;;
19049;SDS011;9657;45.940;12.840;2022-12-29T14:03:53;14.90;;;11.27;;
19049;SDS011;9657;45.940;12.840;2022-12-29T14:06:24;14.93;;;10.30;;
19049;SDS011;9657;45.940;12.840;2022-12-29T14:08:53;16.33;;;11.13;;
19049;SDS011;9657;45.940;12.840;2022-12-29T14:11:23;16.93;;;11.33;;
19049;SDS011;9657;45.940;12.840;2022-12-29T14:13:56;14.20;;;10.97;;
19049;SDS011;9657;45.940;12.840;2022-12-29T14:16:28;16.03;;;11.13;;
19049;SDS011;9657;45.940;12.840;2022-12-29T14:19:03;14.07;;;10.30;;
19049;SDS011;9657;45.940;12.840;2022-12-29T14:21:37;15.27;;;10.60;;
19049;SDS011;9657;45.940;12.840;2022-12-29T14:26:54;16.67;;;11.87;;
19049;SDS011;9657;45.940;12.840;2022-12-29T14:38:17;16.43;;;11.33;;
19049;SDS011;9657;45.940;12.840;2022-12-29T14:43:53;14.73;;;11.53;;
19049;SDS011;9657;45.940;12.840;2022-12-29T14:46:23;17.10;;;11.83;;
19049;SDS011;9657;45.940;12.840;2022-12-29T14:48:54;18.63;;;11.13;;
19049;SDS011;9657;45.940;12.840;2022-12-29T14:51:30;16.93;;;12.00;;
19049;SDS011;9657;45.940;12.840;2022-12-29T14:54:02;17.73;;;12.30;;
19049;SDS011;9657;45.940;12.840;2022-12-29T14:57:21;16.63;;;12.83;;
19049;SDS011;9657;45.940;12.840;2022-12-29T14:59:54;21.07;;;12.93;;
19049;SDS011;9657;45.940;12.840;2022-12-29T15:02:28;16.00;;;12.33;;
19049;SDS011;9657;45.940;12.840;2022-12-29T15:05:02;16.20;;;11.40;;
19049;SDS011;9657;45.940;12.840;2022-12-29T15:07:31;17.37;;;12.07;;
19049;SDS011;9657;45.940;12.840;2022-12-29T15:10:00;16.67;;;11.83;;